»·PEaware :: N805RJ F70-F70

N805RJ :: F70-F70

FLIGHT INFORMATION

Flight Status: Arrived
Operator: Privately registered:
United States
More flights under this callsign
Pilot: Rickie J. (22768)
Aircraft: CESSNA 172 SKYHAWK
(C172)
More flights by this aircraft type
Origin: F70 French Valley
United States
Destination: F70 French Valley
United States
More flights between these airports :: More routes between these airports
Route: WESIN V186 PDZ CIVET
File this flight plan on PilotEdge
Remarks:
Altitude:
(Current/Filed)
6,500ft
Speed:
(Current/Filed)
120kts
Departed: 27-Dec-20 05:24 PM
Arrived: 27-Dec-20 06:54 PM
Distance/Time
Traveled:
0nm/1:29
Distance/Time
To Go:
Arrived

Flight Plot

Page will automatically refresh every two minutes.

Flight plan parsing failed; only flown route is shown


Map Options




Map Legend


Flown Route
Filed Route
Departure Airport
Arrival Airport
Navaid (VOR, NDB)
Fix

Horizontal Profiles

Position Reports

Time Latitude Longitude Heading Altitude Ground
Speed
27-Dec-20 16:27 33.575607 -117.130589 113 1354ft 0kts
27-Dec-20 16:27 33.575607 -117.130589 113 1354ft 0kts
27-Dec-20 16:28 33.575607 -117.130589 113 1354ft 0kts
27-Dec-20 16:30 33.575607 -117.130589 113 1354ft 0kts
27-Dec-20 16:30 33.575607 -117.130589 113 1354ft 0kts
27-Dec-20 16:31 33.575607 -117.130589 113 1354ft 0kts
27-Dec-20 16:32 33.575607 -117.130589 113 1354ft 0kts
27-Dec-20 16:33 33.575607 -117.130589 113 1354ft 0kts
27-Dec-20 16:34 33.575607 -117.130589 113 1354ft 0kts
27-Dec-20 16:35 33.575607 -117.130589 113 1354ft 0kts
27-Dec-20 16:36 33.575607 -117.130589 113 1354ft 0kts
27-Dec-20 16:37 33.575607 -117.130589 113 1354ft 0kts
27-Dec-20 16:38 33.575607 -117.130589 113 1354ft 0kts
27-Dec-20 16:39 33.575607 -117.130589 113 1354ft 0kts
27-Dec-20 16:40 33.575607 -117.130589 113 1354ft 0kts
27-Dec-20 16:41 33.575607 -117.130589 113 1354ft 0kts
27-Dec-20 16:42 33.575607 -117.130589 113 1354ft 0kts
27-Dec-20 16:43 33.575607 -117.130589 113 1354ft 0kts
27-Dec-20 16:44 33.575607 -117.130589 113 1354ft 0kts
27-Dec-20 16:45 33.575607 -117.130589 113 1354ft 0kts
27-Dec-20 16:46 33.575607 -117.130589 113 1354ft 0kts
27-Dec-20 16:47 33.575607 -117.130589 113 1354ft 0kts
27-Dec-20 16:48 33.575607 -117.130589 113 1354ft 0kts
27-Dec-20 16:49 33.575607 -117.130589 113 1354ft 0kts
27-Dec-20 16:50 33.575607 -117.130589 113 1354ft 0kts
27-Dec-20 16:51 33.575607 -117.130589 113 1354ft 0kts
27-Dec-20 16:52 33.575607 -117.130589 113 1354ft 0kts
27-Dec-20 16:53 33.575607 -117.130589 113 1354ft 0kts
27-Dec-20 16:54 33.575607 -117.130589 113 1354ft 0kts
27-Dec-20 16:55 33.575607 -117.130589 113 1354ft 0kts
27-Dec-20 16:56 33.575607 -117.130589 113 1354ft 0kts
27-Dec-20 16:57 33.575607 -117.130589 113 1354ft 0kts
27-Dec-20 16:58 33.575607 -117.130589 113 1354ft 0kts
27-Dec-20 16:59 33.575607 -117.130589 113 1354ft 0kts
27-Dec-20 17:00 33.575607 -117.130589 114 1354ft 0kts
27-Dec-20 17:01 33.575607 -117.130589 114 1354ft 0kts
27-Dec-20 17:02 33.575607 -117.130589 114 1354ft 0kts
27-Dec-20 17:03 33.575607 -117.130589 114 1354ft 0kts
27-Dec-20 17:04 33.575607 -117.130589 114 1354ft 0kts
27-Dec-20 17:05 33.575607 -117.130589 114 1354ft 0kts
27-Dec-20 17:06 33.575607 -117.130589 114 1354ft 0kts
27-Dec-20 17:07 33.575607 -117.130589 114 1354ft 0kts
27-Dec-20 17:08 33.575607 -117.130589 114 1354ft 0kts
27-Dec-20 17:09 33.575607 -117.130589 114 1354ft 0kts
27-Dec-20 17:10 33.575607 -117.130589 114 1354ft 0kts
27-Dec-20 17:11 33.575607 -117.130589 114 1354ft 0kts
27-Dec-20 17:12 33.575607 -117.130589 114 1354ft 0kts
27-Dec-20 17:13 33.575607 -117.130589 114 1354ft 0kts
27-Dec-20 17:14 33.575607 -117.130589 114 1354ft 0kts
27-Dec-20 17:15 33.575440 -117.130287 108 1354ft 3kts
27-Dec-20 17:16 33.575783 -117.128871 12 1354ft 7kts
27-Dec-20 17:17 33.578372 -117.128182 12 1354ft 12kts
27-Dec-20 17:18 33.582094 -117.127210 13 1354ft 5kts
27-Dec-20 17:19 33.582322 -117.127486 74 1354ft 0kts
27-Dec-20 17:20 33.582322 -117.127486 74 1354ft 0kts
27-Dec-20 17:21 33.582285 -117.127099 90 1354ft 4kts
27-Dec-20 17:22 33.582280 -117.126972 94 1354ft 1kts
27-Dec-20 17:23 33.578994 -117.127212 192 1354ft 65kts
27-Dec-20 17:24 33.552725 -117.135581 193 1876ft 94kts
27-Dec-20 17:25 33.528136 -117.141141 189 2662ft 88kts
27-Dec-20 17:26 33.503780 -117.146329 194 3365ft 87kts
27-Dec-20 17:27 33.505628 -117.175178 293 3968ft 108kts
27-Dec-20 17:28 33.522913 -117.205079 336 4568ft 116kts
27-Dec-20 17:29 33.554424 -117.214306 344 5168ft 115kts
27-Dec-20 17:30 33.574256 -117.238471 304 5766ft 108kts
27-Dec-20 17:31 33.597610 -117.261787 320 6342ft 110kts
27-Dec-20 17:32 33.624798 -117.284626 320 6494ft 123kts
27-Dec-20 17:33 33.653343 -117.308377 320 6561ft 122kts
27-Dec-20 17:34 33.682170 -117.332778 325 6510ft 129kts
27-Dec-20 17:35 33.711874 -117.357563 319 6493ft 131kts
27-Dec-20 17:36 33.741406 -117.381949 321 6507ft 128kts
27-Dec-20 17:37 33.770495 -117.406253 321 6489ft 129kts
27-Dec-20 17:38 33.800123 -117.430988 321 6478ft 129kts
27-Dec-20 17:39 33.829214 -117.455347 321 6477ft 128kts
27-Dec-20 17:40 33.857820 -117.479328 321 6504ft 127kts
27-Dec-20 17:41 33.886589 -117.503464 320 6503ft 127kts
27-Dec-20 17:42 33.917341 -117.522047 9 6501ft 134kts
27-Dec-20 17:43 33.947644 -117.494951 43 6503ft 137kts
27-Dec-20 17:44 33.974740 -117.462641 44 6506ft 137kts
27-Dec-20 17:45 34.002038 -117.429930 44 6500ft 137kts
27-Dec-20 17:46 34.029054 -117.396661 59 6487ft 139kts
27-Dec-20 17:47 34.028494 -117.350988 103 6504ft 135kts
27-Dec-20 17:48 34.021118 -117.306302 104 6506ft 134kts
27-Dec-20 17:49 34.013468 -117.261757 104 6506ft 134kts
27-Dec-20 17:50 34.005934 -117.217206 105 6511ft 134kts
27-Dec-20 17:51 33.998533 -117.174091 105 6500ft 124kts
27-Dec-20 17:52 33.991576 -117.133709 105 6515ft 119kts
27-Dec-20 17:53 33.984673 -117.093666 105 6522ft 121kts
27-Dec-20 17:54 33.972363 -117.055845 156 6251ft 127kts
27-Dec-20 17:55 33.937460 -117.052915 186 5862ft 127kts
27-Dec-20 17:57 33.901722 -117.056483 187 5462ft 128kts
27-Dec-20 17:58 33.866110 -117.060218 188 5057ft 129kts
27-Dec-20 17:59 33.829573 -117.064052 188 4557ft 131kts
27-Dec-20 18:00 33.793830 -117.070483 196 4188ft 127kts
27-Dec-20 18:01 33.758036 -117.079918 195 3749ft 134kts
27-Dec-20 18:02 33.721376 -117.089197 198 3227ft 122kts
27-Dec-20 18:03 33.689614 -117.098017 196 2703ft 113kts
27-Dec-20 18:04 33.660030 -117.105789 197 2356ft 95kts
27-Dec-20 18:05 33.635203 -117.112364 197 2045ft 90kts
27-Dec-20 18:06 33.611702 -117.118559 197 1795ft 87kts
27-Dec-20 18:07 33.580254 -117.126709 189 1823ft 124kts
27-Dec-20 18:08 33.546415 -117.134227 188 2055ft 116kts
27-Dec-20 18:09 33.519167 -117.145040 241 2747ft 103kts
27-Dec-20 18:10 33.539451 -117.160506 13 3408ft 110kts
27-Dec-20 18:11 33.568387 -117.161894 344 4154ft 103kts
27-Dec-20 18:12 33.597044 -117.169933 342 4765ft 106kts
27-Dec-20 18:13 33.625196 -117.178311 340 5365ft 100kts
27-Dec-20 18:13 33.648317 -117.185274 340 5747ft 105kts
27-Dec-20 18:15 33.682417 -117.195499 341 6216ft 109kts
27-Dec-20 18:16 33.712260 -117.204474 341 6511ft 118kts
27-Dec-20 18:17 33.746215 -117.214654 341 6506ft 129kts
27-Dec-20 18:17 33.775571 -117.223494 341 6508ft 134kts
27-Dec-20 18:18 33.811021 -117.234224 341 6505ft 131kts
27-Dec-20 18:19 33.845608 -117.246797 321 6502ft 127kts
27-Dec-20 18:20 33.874624 -117.270992 305 6503ft 127kts
27-Dec-20 18:21 33.856375 -117.284292 124 6507ft 135kts
27-Dec-20 18:22 33.842885 -117.241331 105 6507ft 136kts
27-Dec-20 18:23 33.866218 -117.231561 287 6513ft 122kts
27-Dec-20 18:24 33.874468 -117.271569 281 6523ft 122kts
27-Dec-20 18:25 33.882432 -117.311650 281 6510ft 123kts
27-Dec-20 18:26 33.890722 -117.351633 281 6510ft 122kts
27-Dec-20 18:27 33.880876 -117.380708 167 6506ft 126kts
27-Dec-20 18:28 33.868753 -117.340390 100 6504ft 136kts
27-Dec-20 18:29 33.879813 -117.303332 13 6507ft 134kts
27-Dec-20 18:30 33.916299 -117.291970 11 6507ft 134kts
27-Dec-20 18:31 33.952875 -117.280654 11 6507ft 135kts
27-Dec-20 18:32 33.989662 -117.269236 13 6507ft 135kts
27-Dec-20 18:33 34.001098 -117.228771 102 6484ft 135kts
27-Dec-20 18:34 33.995560 -117.186415 102 6497ft 127kts
27-Dec-20 18:35 33.989864 -117.145339 103 6480ft 119kts
27-Dec-20 18:36 33.984622 -117.106125 103 6507ft 118kts
27-Dec-20 18:37 33.979190 -117.065904 104 6498ft 120kts
27-Dec-20 18:38 33.950123 -117.052068 184 6103ft 119kts
27-Dec-20 18:39 33.917121 -117.054876 187 5705ft 116kts
27-Dec-20 18:40 33.884864 -117.058273 189 5297ft 114kts
27-Dec-20 18:41 33.853303 -117.061585 188 4890ft 112kts
27-Dec-20 18:42 33.822059 -117.064895 187 4495ft 112kts
27-Dec-20 18:43 33.790972 -117.071291 197 4110ft 113kts
27-Dec-20 18:44 33.760878 -117.079152 197 3767ft 98kts
27-Dec-20 18:45 33.735203 -117.085948 198 3444ft 91kts
27-Dec-20 18:46 33.710529 -117.092463 198 3133ft 90kts
27-Dec-20 18:47 33.685634 -117.099048 197 2834ft 91kts
27-Dec-20 18:49 33.656440 -117.106766 198 2498ft 91kts
27-Dec-20 18:49 33.636994 -117.111887 198 2233ft 80kts
27-Dec-20 18:50 33.615513 -117.117556 200 1959ft 77kts
27-Dec-20 18:51 33.594820 -117.123207 196 1725ft 66kts
27-Dec-20 18:52 33.577231 -117.127677 191 1354ft 53kts
27-Dec-20 18:53 33.570055 -117.130123 279 1354ft 0kts
27-Dec-20 18:54 33.570075 -117.130177 300 1354ft 2kts
27-Dec-20 18:55 33.571885 -117.129890 13 1354ft 10kts
27-Dec-20 18:56 33.575350 -117.128979 12 1354ft 14kts
27-Dec-20 18:57 33.579563 -117.127875 10 1354ft 16kts
27-Dec-20 18:58 33.582329 -117.127516 11 1354ft 0kts
27-Dec-20 18:59 33.582337 -117.127498 74 1354ft 0kts
27-Dec-20 19:00 33.582337 -117.127498 74 1354ft 0kts
27-Dec-20 19:01 33.582337 -117.127498 74 1354ft 0kts
27-Dec-20 19:02 33.582337 -117.127498 74 1354ft 0kts
27-Dec-20 19:03 33.582337 -117.127498 74 1354ft 0kts
27-Dec-20 19:04 33.582337 -117.127498 74 1354ft 0kts
27-Dec-20 19:05 33.582337 -117.127498 74 1354ft 0kts
27-Dec-20 19:06 33.582337 -117.127498 74 1354ft 0kts
27-Dec-20 19:07 33.582337 -117.127498 74 1354ft 0kts

Navigation Log

Ident Type
Flight plan parsing failed, navigation log unavailable